Belvidere, NC (27919)

11:15 AM EDT on April 28, 2015 (GMT -0400)
Northeast Landing | | Change Station
CLOSE
Current Station
Personal Weather Station
Location: Elizabeth City, NC
Elevation: 16 ft
Nearby Weather Stations

Elev 16 ft 36.37 °N, 76.30 °W | Updated 39 minutes ago

Clear
Clear
60.4 °F
Feels Like 60.4 °F
N
7.3
Wind Variable Wind from NNE

Today
High -- | Low -- °F
--% Chance of Precip.
Yesterday
High -- | Low -- °F
Precip. -- in
6:16 AM 7:51 PM
Waxing Gibbous, 74% visible
Pressure 29.93 in
Visibility 10.0 miles
Clouds Clear
Dew Point 42 °F
Humidity 51%
Rainfall 0.00 in
Snow Depth Not available.
UV 8 out of 12
Pollen 10.10 out of 12
Air Quality Not available.
Flu Activity Sporadic
METAR KECG 281454Z 31006KT 10SM CLR 14/05 A2993 RMK AO2 RAB29E38 SLP134 P0000 60000 T01440050 53006

More Conditions Fewer Conditions

Pressure 29.93 in
Visibility 10.0 miles
Clouds Clear
Dew Point 42 °F
Humidity 51%
Rainfall 0.00 in
Snow Depth Not available.
UV 8 out of 12
Pollen 10.10 out of 12
Air Quality Not available.
Flu Activity Sporadic
METAR KECG 281454Z 31006KT 10SM CLR 14/05 A2993 RMK AO2 RAB29E38 SLP134 P0000 60000 T01440050 53006

More Conditions Fewer Conditions

10-Day Weather Forecast

Almanac

Astronomy

Apr. 28, 2015 Rise Set
Actual Time
Civil Twilight
Nautical Twilight
Astronomical Twilight
Moon
Length of Visible Light
Length of Day
Tomorrow will be .
, % of the Moon is Illuminated

Today's Extremes

State Highs State Lows

Community

WunderPhotos

Upload Photos

1,817,660 photos uploaded!

WunderBlogs® & News

Nearby

Air Quality

  Air Quality AQ Index Pollutant
Not available.

Snow Depth

Station Depth Elevation

Earthquake Activity

City Distance Mag. Time & Date
Minimum magnitude displayed is 2.5.

Coastal Water Temperatures

Place Temperature

Stations

Nearby Weather Stations

Station Location Temp. Windchill Dew Point Humidity Wind Precip. Elev Updated Type